VTUW

Nakhon Phanom Airport

Thailand
TAF VTUW 211700Z 2118/2218 24010KT 9999 SCT20 BKN070 TEMPO 2118/2124 23010KT 5000 RA BKN015 BKN060 BECMG 2202/2203 27010KT 8000 BKN020 BKN080 TEMPO 2203/2207 28012KT 4000 RA BKN020 BKN080 TEMPO 2214/2218 VRB15KT 5000 RA BKN020 BKN080
Issued Valid From Valid To
Jul-21 @ 17:00 UTC
(6 hours ago)
Jul-21 @ 18:00 UTC
(5 hours ago)
Jul-22 @ 18:00 UTC
(in 19 hours)
Jul-21 @ 18:00 to Jul-22 @ 02:00
TAF VTUW 211700Z 2118/2218 24010KT 9999 SCT20 BKN070
Wind Visibility Clouds
240° at 10 knots 10,000+ meters
  • Broken at 7,000' AGL
Temporary Jul-21 @ 18:00 to Jul-22 @ 00:00
TEMPO 2118/2124 23010KT 5000 RA BKN015 BKN060
Wind Visibility Clouds Conditions
230° at 10 knots 5,005 meters
  • Broken at 1,500' AGL
  • Broken at 6,000' AGL
  • Rain
Becoming Jul-22 @ 02:00 to Jul-22 @ 18:00
BECMG 2202/2203 27010KT 8000 BKN020 BKN080
Wind Visibility Clouds
270° at 10 knots 7,998 meters
  • Broken at 2,000' AGL
  • Broken at 8,000' AGL
Temporary Jul-22 @ 03:00 to Jul-22 @ 07:00
TEMPO 2203/2207 28012KT 4000 RA BKN020 BKN080
Wind Visibility Clouds Conditions
280° at 12 knots 4,007 meters
  • Broken at 2,000' AGL
  • Broken at 8,000' AGL
  • Rain
Temporary Jul-22 @ 14:00 to Jul-22 @ 18:00
TEMPO 2214/2218 VRB15KT 5000 RA BKN020 BKN080
Wind Visibility Clouds Conditions
Variable at 15 knots 5,005 meters
  • Broken at 2,000' AGL
  • Broken at 8,000' AGL
  • Rain
TAF VTUW 211700Z 2118/2218 24010KT 9999 SCT20 BKN070 TEMPO 2118/2124 23010KT 5000 RA BKN015 BKN060 BECMG 2202/2203 27010KT 8000 BKN020 BKN080 TEMPO 2203/2207 28012KT 4000 RA BKN020 BKN080 TEMPO 2214/2218 VRB15KT 5000 RA BKN020 BKN080
Issued Jul-21 @ 17:00 UTC
(6 hours ago)
Valid From Jul-21 @ 18:00 UTC
(5 hours ago)
Valid To Jul-22 @ 18:00 UTC
(in 19 hours)
Jul-21 @ 18:00 - Jul-22 @ 02:00
Wind Visibility
240° at 10 knots 10,000+ meters
Clouds
  • Broken at 7,000' AGL
Temporary Jul-21 @ 18:00 - Jul-22 @ 00:00
Wind Visibility
230° at 10 knots 5,005 meters
Clouds
  • Broken at 1,500' AGL
  • Broken at 6,000' AGL
Conditions
  • Rain
Becoming Jul-22 @ 02:00 - Jul-22 @ 18:00
Wind Visibility
270° at 10 knots 7,998 meters
Clouds
  • Broken at 2,000' AGL
  • Broken at 8,000' AGL
Temporary Jul-22 @ 03:00 - Jul-22 @ 07:00
Wind Visibility
280° at 12 knots 4,007 meters
Clouds
  • Broken at 2,000' AGL
  • Broken at 8,000' AGL
Conditions
  • Rain
Temporary Jul-22 @ 14:00 - Jul-22 @ 18:00
Wind Visibility
Variable at 15 knots 5,005 meters
Clouds
  • Broken at 2,000' AGL
  • Broken at 8,000' AGL
Conditions
  • Rain